createdAt,value
2019-02-16T00:01:59.790Z,20.65
2019-02-16T00:04:28.947Z,22.00
2019-02-16T00:06:57.859Z,23.95
2019-02-16T00:09:26.725Z,21.57
2019-02-16T00:11:55.676Z,22.42
2019-02-16T00:14:24.602Z,23.38
2019-02-16T00:16:53.482Z,21.25
2019-02-16T00:19:22.447Z,20.73
2019-02-16T00:21:51.238Z,21.65
2019-02-16T00:24:20.022Z,20.52
2019-02-16T00:26:48.936Z,20.60
2019-02-16T00:29:17.794Z,19.87
2019-02-16T00:31:46.646Z,20.30
2019-02-16T00:34:15.518Z,20.70
2019-02-16T00:36:44.361Z,21.60
2019-02-16T00:39:13.403Z,21.20
2019-02-16T00:41:42.230Z,21.60
2019-02-16T00:44:11.087Z,28.40
2019-02-16T00:46:39.949Z,24.12
2019-02-16T00:49:08.867Z,24.20
2019-02-16T00:51:37.702Z,24.30
2019-02-16T00:54:06.697Z,23.45
2019-02-16T00:56:35.515Z,25.40
2019-02-16T00:59:04.423Z,22.13
2019-02-16T01:01:33.432Z,22.93
2019-02-16T01:04:02.348Z,25.32
2019-02-16T01:06:31.377Z,25.60
2019-02-16T01:09:00.196Z,25.32
2019-02-16T01:11:29.095Z,26.30
2019-02-16T01:13:57.984Z,24.90
2019-02-16T01:16:26.856Z,26.62
2019-02-16T01:18:55.760Z,26.33
2019-02-16T01:21:24.648Z,27.10
2019-02-16T01:23:53.440Z,28.40
2019-02-16T01:26:22.383Z,25.60
2019-02-16T01:28:51.646Z,25.57
2019-02-16T01:31:20.676Z,26.95
2019-02-16T01:33:49.570Z,25.80
2019-02-16T01:36:18.431Z,27.07
2019-02-16T01:38:47.274Z,26.90
2019-02-16T01:41:16.050Z,26.30
2019-02-16T01:43:44.879Z,25.77
2019-02-16T01:46:13.667Z,28.20
2019-02-16T01:48:42.588Z,31.40
2019-02-16T01:51:11.396Z,29.85
2019-02-16T01:53:40.260Z,28.80
2019-02-16T01:56:09.127Z,29.23
2019-02-16T01:58:37.966Z,27.98
2019-02-16T02:01:06.946Z,28.38
2019-02-16T02:03:35.882Z,30.57
2019-02-16T02:06:04.818Z,30.32
2019-02-16T02:08:33.778Z,27.67
2019-02-16T02:11:02.557Z,26.90
2019-02-16T02:13:31.817Z,27.75
2019-02-16T02:16:00.770Z,26.63
2019-02-16T02:18:29.611Z,27.10
2019-02-16T02:20:58.533Z,24.67
2019-02-16T02:23:27.358Z,24.20
2019-02-16T02:25:56.171Z,24.63
2019-02-16T02:28:25.141Z,23.95
2019-02-16T02:30:54.017Z,22.82
2019-02-16T02:33:22.792Z,22.90
2019-02-16T02:35:51.634Z,22.32
2019-02-16T02:38:20.472Z,24.02
2019-02-16T02:40:49.262Z,24.15
2019-02-16T02:43:18.098Z,25.20
2019-02-16T02:45:47.096Z,26.20
2019-02-16T02:48:16.017Z,24.82
2019-02-16T02:50:44.866Z,25.17
2019-02-16T02:53:13.965Z,23.38
2019-02-16T02:55:42.894Z,23.05
2019-02-16T02:58:11.767Z,23.25
2019-02-16T03:00:40.675Z,25.10
2019-02-16T03:03:09.479Z,25.25
2019-02-16T03:05:38.329Z,28.50
2019-02-16T03:08:07.111Z,23.77
2019-02-16T03:10:35.895Z,24.45
2019-02-16T03:13:04.792Z,22.10
2019-02-16T03:15:33.708Z,23.70
2019-02-16T03:18:02.512Z,22.55
2019-02-16T03:20:31.385Z,23.20
2019-02-16T03:23:14.218Z,22.50
2019-02-16T03:25:46.466Z,22.27
2019-02-16T03:28:42.351Z,21.95
2019-02-16T03:31:51.422Z,21.48
2019-02-16T03:34:28.003Z,20.35
2019-02-16T03:37:24.615Z,19.42
2019-02-16T03:39:53.519Z,21.97
2019-02-16T03:42:22.335Z,20.85
2019-02-16T03:44:51.250Z,19.45
2019-02-16T03:47:20.069Z,20.70
2019-02-16T03:49:48.847Z,23.40
2019-02-16T03:52:17.654Z,23.12
2019-02-16T03:54:46.428Z,22.98
2019-02-16T03:57:15.280Z,24.23
2019-02-16T03:59:44.115Z,24.02
2019-02-16T04:02:12.977Z,29.70
2019-02-16T04:04:41.953Z,23.50
2019-02-16T04:07:10.873Z,27.90
2019-02-16T04:09:39.853Z,25.80
2019-02-16T04:12:08.660Z,21.68
2019-02-16T04:14:37.448Z,26.93
2019-02-16T04:17:06.266Z,25.03
2019-02-16T04:19:35.065Z,22.70
2019-02-16T04:22:04.066Z,22.32
2019-02-16T04:24:32.895Z,23.80
2019-02-16T04:27:01.660Z,22.33
2019-02-16T04:29:30.673Z,20.23
2019-02-16T04:31:59.527Z,19.37
2019-02-16T04:34:28.386Z,19.70
2019-02-16T04:36:57.253Z,22.35
2019-02-16T04:39:26.118Z,21.50
2019-02-16T04:41:54.957Z,20.93
2019-02-16T04:44:23.844Z,22.40
2019-02-16T04:46:52.706Z,22.63
2019-02-16T04:49:21.573Z,21.67
2019-02-16T04:52:09.673Z,20.33
2019-02-16T04:54:40.337Z,20.57
2019-02-16T04:57:09.422Z,19.30
2019-02-16T04:59:38.304Z,19.70
2019-02-16T05:02:07.176Z,20.52
2019-02-16T05:04:36.089Z,20.70
2019-02-16T05:07:04.908Z,19.10
2019-02-16T05:09:33.670Z,21.97
2019-02-16T05:12:02.490Z,19.40
2019-02-16T05:14:31.620Z,19.65
2019-02-16T05:17:00.410Z,20.32
2019-02-16T05:19:29.308Z,21.68
2019-02-16T05:21:58.169Z,18.60
2019-02-16T05:24:26.975Z,17.70
2019-02-16T05:26:55.760Z,18.52
2019-02-16T05:29:24.576Z,18.87
2019-02-16T05:31:53.421Z,20.72
2019-02-16T05:34:22.355Z,18.00
2019-02-16T05:36:51.234Z,18.60
2019-02-16T05:39:20.072Z,19.57
2019-02-16T05:41:48.892Z,19.48
2019-02-16T05:44:17.770Z,18.98
2019-02-16T05:46:46.635Z,20.32
2019-02-16T05:49:15.613Z,19.60
2019-02-16T05:51:44.509Z,18.15
2019-02-16T05:54:13.428Z,18.20
2019-02-16T05:56:42.212Z,20.65
2019-02-16T05:59:11.011Z,24.35
2019-02-16T06:01:39.891Z,20.00
2019-02-16T06:04:08.866Z,21.37
2019-02-16T06:06:37.846Z,21.65
2019-02-16T06:09:06.674Z,19.45
2019-02-16T06:11:35.441Z,18.85
2019-02-16T06:14:04.211Z,19.95
2019-02-16T06:16:32.975Z,20.30
2019-02-16T06:19:01.873Z,20.10
2019-02-16T06:21:30.797Z,20.10
2019-02-16T06:23:59.731Z,18.17
2019-02-16T06:26:28.579Z,17.90
2019-02-16T06:28:57.456Z,17.90
2019-02-16T06:31:26.340Z,19.65
2019-02-16T06:33:55.193Z,18.20
2019-02-16T06:36:37.249Z,20.90
2019-02-16T06:39:06.180Z,20.20
2019-02-16T06:41:35.095Z,20.20
2019-02-16T06:44:03.945Z,20.30
2019-02-16T06:46:32.796Z,18.37
2019-02-16T06:49:01.646Z,17.35
2019-02-16T06:51:30.521Z,19.55
2019-02-16T06:53:59.450Z,20.05
2019-02-16T06:56:45.669Z,23.10
2019-02-16T06:59:14.525Z,21.95
2019-02-16T07:01:43.388Z,24.43
2019-02-16T07:04:12.261Z,25.55
2019-02-16T07:06:41.056Z,22.22
2019-02-16T07:09:10.083Z,19.55
2019-02-16T07:11:39.039Z,23.67
2019-02-16T07:14:07.839Z,25.53
2019-02-16T07:16:55.817Z,21.03
2019-02-16T07:19:27.776Z,18.17
2019-02-16T07:21:56.689Z,20.00
2019-02-16T07:24:26.347Z,19.65
2019-02-16T07:26:55.156Z,18.85
2019-02-16T07:29:24.070Z,18.77
2019-02-16T07:31:52.898Z,18.63
2019-02-16T07:34:21.848Z,20.00
2019-02-16T07:36:50.866Z,16.25
2019-02-16T07:39:19.746Z,19.95
2019-02-16T07:41:48.520Z,18.40
2019-02-16T07:44:45.433Z,21.77
2019-02-16T07:47:20.628Z,19.65
2019-02-16T07:50:08.557Z,17.82
2019-02-16T07:52:55.836Z,17.70
2019-02-16T07:55:57.962Z,17.12
2019-02-16T07:59:04.233Z,20.40
2019-02-16T08:01:45.340Z,19.15
2019-02-16T08:04:39.233Z,18.77
2019-02-16T08:07:25.809Z,19.35
2019-02-16T08:10:08.850Z,20.63
2019-02-16T08:12:48.536Z,20.08
2019-02-16T08:15:39.552Z,18.90
2019-02-16T08:18:48.235Z,19.80
2019-02-16T08:21:29.720Z,17.10
2019-02-16T08:24:13.531Z,18.10
2019-02-16T08:26:51.434Z,18.35
2019-02-16T08:29:32.182Z,18.60
2019-02-16T08:32:14.750Z,16.67
2019-02-16T08:35:05.855Z,20.40
2019-02-16T08:37:54.127Z,19.20
2019-02-16T08:40:47.185Z,15.03
2019-02-16T08:43:41.425Z,15.23
2019-02-16T08:46:28.409Z,14.98
2019-02-16T08:49:18.962Z,14.87
2019-02-16T08:52:09.762Z,61.70
2019-02-16T08:54:49.404Z,16.00
2019-02-16T08:57:47.126Z,14.50
2019-02-16T09:00:37.155Z,14.35
2019-02-16T09:03:25.270Z,11.22
2019-02-16T09:06:16.084Z,13.22
2019-02-16T09:09:04.082Z,11.10
2019-02-16T09:11:44.640Z,10.28
2019-02-16T09:14:50.956Z,9.78
2019-02-16T09:17:33.790Z,9.43
2019-02-16T09:20:34.000Z,11.78
2019-02-16T09:23:13.933Z,10.90
2019-02-16T09:26:04.588Z,8.40
2019-02-16T09:28:58.316Z,8.90
2019-02-16T09:31:52.287Z,8.35
2019-02-16T09:34:31.474Z,7.75
2019-02-16T09:37:29.005Z,7.20
2019-02-16T09:40:18.942Z,7.70
2019-02-16T09:42:53.365Z,7.92
2019-02-16T09:45:40.563Z,7.10
2019-02-16T09:48:28.678Z,7.60
2019-02-16T09:51:22.749Z,7.03
2019-02-16T09:54:09.497Z,7.47
2019-02-16T09:56:55.912Z,7.35
2019-02-16T09:59:39.327Z,6.05
2019-02-16T10:02:35.564Z,7.67
2019-02-16T10:05:33.568Z,6.70
2019-02-16T10:08:13.598Z,6.20
2019-02-16T10:10:51.956Z,6.65
2019-02-16T10:13:39.979Z,6.43
2019-02-16T10:16:33.513Z,7.17
2019-02-16T10:19:11.308Z,6.00
2019-02-16T10:21:56.056Z,5.05
2019-02-16T10:24:47.253Z,4.30
2019-02-16T10:27:34.791Z,4.70
2019-02-16T10:30:25.546Z,6.45
2019-02-16T10:33:19.617Z,4.58
2019-02-16T10:36:13.690Z,4.70
2019-02-16T10:39:07.635Z,4.87
2019-02-16T10:41:54.509Z,4.55
2019-02-16T10:44:35.630Z,6.50
2019-02-16T10:47:26.816Z,4.50
2019-02-16T10:50:33.556Z,5.00
2019-02-16T10:53:27.839Z,5.80
2019-02-16T10:56:03.889Z,5.55
2019-02-16T10:58:52.290Z,6.78
2019-02-16T11:01:42.051Z,6.00
2019-02-16T11:04:38.124Z,4.90
2019-02-16T11:07:11.435Z,4.72
2019-02-16T11:09:45.433Z,4.87
2019-02-16T11:12:45.446Z,4.65
2019-02-16T11:15:24.833Z,4.28
2019-02-16T11:18:11.402Z,4.62
2019-02-16T11:20:58.267Z,7.53
2019-02-16T11:23:58.350Z,4.12
2019-02-16T11:26:44.039Z,4.90
2019-02-16T11:29:39.814Z,8.80
2019-02-16T11:32:30.940Z,6.40
2019-02-16T11:35:21.946Z,5.28
2019-02-16T11:37:57.524Z,5.00
2019-02-16T11:40:41.661Z,5.05
2019-02-16T11:43:27.588Z,5.35
2019-02-16T11:46:14.284Z,5.40
2019-02-16T11:49:01.008Z,4.30
2019-02-16T11:51:57.742Z,4.20
2019-02-16T11:54:33.742Z,4.47
2019-02-16T11:57:20.585Z,3.92
2019-02-16T11:59:58.570Z,4.08
2019-02-16T12:02:42.799Z,4.87
2019-02-16T12:05:35.199Z,4.83
2019-02-16T12:08:22.213Z,4.15
2019-02-16T12:11:05.114Z,3.55
2019-02-16T12:13:54.953Z,5.80
2019-02-16T12:16:37.069Z,8.20
2019-02-16T12:19:23.808Z,4.60
2019-02-16T12:22:13.896Z,4.00
2019-02-16T12:25:05.681Z,4.55
2019-02-16T12:27:49.094Z,4.30
